sensor_id;sensor_type;location;lat;lon;timestamp;P1;durP1;ratioP1;P2;durP2;ratioP2
73337;SDS011;61575;49.908;35.556;2023-07-02T00:00:23;5.53;;;3.13;;
73337;SDS011;61575;49.908;35.556;2023-07-02T00:03:25;5.50;;;3.17;;
73337;SDS011;61575;49.908;35.556;2023-07-02T00:06:27;5.18;;;2.83;;
73337;SDS011;61575;49.908;35.556;2023-07-02T00:09:29;4.78;;;2.90;;
73337;SDS011;61575;49.908;35.556;2023-07-02T00:12:31;6.57;;;2.92;;
73337;SDS011;61575;49.908;35.556;2023-07-02T00:15:34;5.13;;;3.10;;
73337;SDS011;61575;49.908;35.556;2023-07-02T00:18:36;5.03;;;3.15;;
73337;SDS011;61575;49.908;35.556;2023-07-02T00:21:38;5.53;;;3.03;;
73337;SDS011;61575;49.908;35.556;2023-07-02T00:24:42;4.63;;;2.88;;
73337;SDS011;61575;49.908;35.556;2023-07-02T00:27:44;5.10;;;2.90;;
73337;SDS011;61575;49.908;35.556;2023-07-02T00:30:46;5.43;;;3.03;;
73337;SDS011;61575;49.908;35.556;2023-07-02T00:36:50;5.30;;;2.92;;
73337;SDS011;61575;49.908;35.556;2023-07-02T00:39:52;5.57;;;3.28;;
73337;SDS011;61575;49.908;35.556;2023-07-02T00:42:54;4.97;;;2.92;;
73337;SDS011;61575;49.908;35.556;2023-07-02T00:45:58;4.80;;;2.70;;
73337;SDS011;61575;49.908;35.556;2023-07-02T00:49:00;4.90;;;2.90;;
73337;SDS011;61575;49.908;35.556;2023-07-02T00:52:06;5.20;;;3.10;;
73337;SDS011;61575;49.908;35.556;2023-07-02T00:55:08;4.78;;;2.70;;
73337;SDS011;61575;49.908;35.556;2023-07-02T00:58:10;5.40;;;3.03;;
73337;SDS011;61575;49.908;35.556;2023-07-02T01:01:20;5.47;;;3.08;;
73337;SDS011;61575;49.908;35.556;2023-07-02T01:04:24;5.30;;;2.92;;
73337;SDS011;61575;49.908;35.556;2023-07-02T01:07:31;4.43;;;2.72;;
73337;SDS011;61575;49.908;35.556;2023-07-02T01:10:33;4.97;;;2.72;;
73337;SDS011;61575;49.908;35.556;2023-07-02T01:13:36;6.70;;;3.00;;
73337;SDS011;61575;49.908;35.556;2023-07-02T01:16:39;4.47;;;2.65;;
73337;SDS011;61575;49.908;35.556;2023-07-02T01:19:46;5.78;;;3.00;;
73337;SDS011;61575;49.908;35.556;2023-07-02T01:22:55;5.63;;;2.80;;
73337;SDS011;61575;49.908;35.556;2023-07-02T01:25:58;5.43;;;3.03;;
73337;SDS011;61575;49.908;35.556;2023-07-02T01:32:15;5.30;;;3.05;;
73337;SDS011;61575;49.908;35.556;2023-07-02T01:35:17;5.22;;;2.90;;
73337;SDS011;61575;49.908;35.556;2023-07-02T01:38:19;5.63;;;3.08;;
73337;SDS011;61575;49.908;35.556;2023-07-02T01:41:22;6.75;;;3.20;;
73337;SDS011;61575;49.908;35.556;2023-07-02T01:44:24;6.18;;;2.90;;
73337;SDS011;61575;49.908;35.556;2023-07-02T01:47:26;5.03;;;2.75;;
73337;SDS011;61575;49.908;35.556;2023-07-02T01:50:28;5.05;;;3.15;;
73337;SDS011;61575;49.908;35.556;2023-07-02T01:53:30;5.38;;;2.90;;
73337;SDS011;61575;49.908;35.556;2023-07-02T01:56:31;5.53;;;3.25;;
73337;SDS011;61575;49.908;35.556;2023-07-02T02:02:36;6.03;;;3.27;;
73337;SDS011;61575;49.908;35.556;2023-07-02T02:05:38;4.78;;;2.75;;
73337;SDS011;61575;49.908;35.556;2023-07-02T02:08:40;5.00;;;2.92;;
73337;SDS011;61575;49.908;35.556;2023-07-02T02:11:44;6.07;;;3.00;;
73337;SDS011;61575;49.908;35.556;2023-07-02T02:14:49;6.28;;;3.28;;
73337;SDS011;61575;49.908;35.556;2023-07-02T02:17:51;5.50;;;3.25;;
73337;SDS011;61575;49.908;35.556;2023-07-02T02:20:54;4.70;;;2.92;;
73337;SDS011;61575;49.908;35.556;2023-07-02T02:23:56;4.93;;;2.80;;
73337;SDS011;61575;49.908;35.556;2023-07-02T02:26:58;5.03;;;3.30;;
73337;SDS011;61575;49.908;35.556;2023-07-02T02:29:59;7.65;;;3.53;;
73337;SDS011;61575;49.908;35.556;2023-07-02T02:33:03;5.20;;;3.20;;
73337;SDS011;61575;49.908;35.556;2023-07-02T02:36:06;5.68;;;3.20;;
73337;SDS011;61575;49.908;35.556;2023-07-02T02:39:08;6.45;;;3.38;;
73337;SDS011;61575;49.908;35.556;2023-07-02T02:42:10;6.22;;;3.30;;
73337;SDS011;61575;49.908;35.556;2023-07-02T02:45:12;6.07;;;3.30;;
73337;SDS011;61575;49.908;35.556;2023-07-02T02:48:14;5.60;;;3.13;;
73337;SDS011;61575;49.908;35.556;2023-07-02T02:54:18;5.32;;;3.13;;
73337;SDS011;61575;49.908;35.556;2023-07-02T02:57:20;5.78;;;3.40;;
73337;SDS011;61575;49.908;35.556;2023-07-02T03:00:22;5.78;;;3.38;;
73337;SDS011;61575;49.908;35.556;2023-07-02T03:03:24;6.63;;;3.85;;
73337;SDS011;61575;49.908;35.556;2023-07-02T03:06:26;5.82;;;3.50;;
73337;SDS011;61575;49.908;35.556;2023-07-02T03:09:28;5.72;;;3.40;;
73337;SDS011;61575;49.908;35.556;2023-07-02T03:12:30;5.82;;;3.40;;
73337;SDS011;61575;49.908;35.556;2023-07-02T03:15:32;6.35;;;3.72;;
73337;SDS011;61575;49.908;35.556;2023-07-02T03:18:34;7.10;;;4.00;;
73337;SDS011;61575;49.908;35.556;2023-07-02T03:21:36;5.82;;;3.50;;
73337;SDS011;61575;49.908;35.556;2023-07-02T03:24:38;5.90;;;3.50;;
73337;SDS011;61575;49.908;35.556;2023-07-02T03:27:40;8.00;;;3.72;;
73337;SDS011;61575;49.908;35.556;2023-07-02T03:30:42;6.80;;;3.63;;
73337;SDS011;61575;49.908;35.556;2023-07-02T03:33:44;6.35;;;3.75;;
73337;SDS011;61575;49.908;35.556;2023-07-02T03:36:46;6.55;;;3.63;;
73337;SDS011;61575;49.908;35.556;2023-07-02T03:39:47;5.78;;;3.38;;
73337;SDS011;61575;49.908;35.556;2023-07-02T03:42:49;6.68;;;3.78;;
73337;SDS011;61575;49.908;35.556;2023-07-02T03:45:52;7.15;;;4.10;;
73337;SDS011;61575;49.908;35.556;2023-07-02T03:51:55;7.90;;;4.35;;
73337;SDS011;61575;49.908;35.556;2023-07-02T03:54:57;7.03;;;3.97;;
73337;SDS011;61575;49.908;35.556;2023-07-02T03:57:59;6.68;;;3.97;;
73337;SDS011;61575;49.908;35.556;2023-07-02T04:01:01;6.43;;;3.78;;
73337;SDS011;61575;49.908;35.556;2023-07-02T04:04:03;6.85;;;3.90;;
73337;SDS011;61575;49.908;35.556;2023-07-02T04:07:05;6.60;;;4.10;;
73337;SDS011;61575;49.908;35.556;2023-07-02T04:10:07;8.00;;;4.18;;
73337;SDS011;61575;49.908;35.556;2023-07-02T04:16:11;6.82;;;3.80;;
73337;SDS011;61575;49.908;35.556;2023-07-02T04:19:13;6.55;;;4.13;;
73337;SDS011;61575;49.908;35.556;2023-07-02T04:22:15;9.20;;;4.60;;
73337;SDS011;61575;49.908;35.556;2023-07-02T04:25:17;6.88;;;4.38;;
73337;SDS011;61575;49.908;35.556;2023-07-02T04:28:36;6.75;;;4.07;;
73337;SDS011;61575;49.908;35.556;2023-07-02T04:31:38;5.97;;;4.13;;
73337;SDS011;61575;49.908;35.556;2023-07-02T04:34:39;8.00;;;4.57;;
73337;SDS011;61575;49.908;35.556;2023-07-02T04:37:43;7.03;;;4.35;;
73337;SDS011;61575;49.908;35.556;2023-07-02T04:40:45;6.85;;;4.55;;
73337;SDS011;61575;49.908;35.556;2023-07-02T04:46:49;7.78;;;5.07;;
73337;SDS011;61575;49.908;35.556;2023-07-02T04:49:51;8.43;;;4.68;;
73337;SDS011;61575;49.908;35.556;2023-07-02T04:52:53;7.72;;;5.13;;
73337;SDS011;61575;49.908;35.556;2023-07-02T04:55:55;7.63;;;4.80;;
73337;SDS011;61575;49.908;35.556;2023-07-02T04:58:58;8.45;;;5.00;;
73337;SDS011;61575;49.908;35.556;2023-07-02T05:02:00;7.40;;;4.50;;
73337;SDS011;61575;49.908;35.556;2023-07-02T05:05:02;7.03;;;4.82;;
73337;SDS011;61575;49.908;35.556;2023-07-02T05:08:04;6.50;;;4.60;;
73337;SDS011;61575;49.908;35.556;2023-07-02T05:11:06;7.93;;;4.82;;
73337;SDS011;61575;49.908;35.556;2023-07-02T05:14:08;7.13;;;4.93;;
73337;SDS011;61575;49.908;35.556;2023-07-02T05:17:11;8.18;;;5.70;;
73337;SDS011;61575;49.908;35.556;2023-07-02T05:20:13;7.13;;;4.90;;
73337;SDS011;61575;49.908;35.556;2023-07-02T05:23:14;7.15;;;4.53;;
73337;SDS011;61575;49.908;35.556;2023-07-02T05:26:16;7.18;;;4.78;;
73337;SDS011;61575;49.908;35.556;2023-07-02T05:29:18;7.78;;;4.75;;
73337;SDS011;61575;49.908;35.556;2023-07-02T05:35:22;6.95;;;4.80;;
73337;SDS011;61575;49.908;35.556;2023-07-02T05:38:24;6.45;;;4.22;;
73337;SDS011;61575;49.908;35.556;2023-07-02T05:41:26;7.00;;;4.30;;
73337;SDS011;61575;49.908;35.556;2023-07-02T05:44:31;5.90;;;4.10;;
73337;SDS011;61575;49.908;35.556;2023-07-02T05:47:33;6.85;;;4.38;;
73337;SDS011;61575;49.908;35.556;2023-07-02T05:50:35;6.72;;;4.40;;
73337;SDS011;61575;49.908;35.556;2023-07-02T05:53:37;6.45;;;4.10;;
73337;SDS011;61575;49.908;35.556;2023-07-02T05:56:39;7.68;;;4.78;;
73337;SDS011;61575;49.908;35.556;2023-07-02T05:59:41;6.28;;;4.40;;
73337;SDS011;61575;49.908;35.556;2023-07-02T06:02:45;6.07;;;4.47;;
73337;SDS011;61575;49.908;35.556;2023-07-02T06:05:48;6.63;;;4.25;;
73337;SDS011;61575;49.908;35.556;2023-07-02T06:08:51;7.03;;;4.65;;
73337;SDS011;61575;49.908;35.556;2023-07-02T06:14:55;7.07;;;4.70;;
73337;SDS011;61575;49.908;35.556;2023-07-02T06:17:56;7.18;;;5.00;;
73337;SDS011;61575;49.908;35.556;2023-07-02T06:20:59;8.88;;;5.40;;
73337;SDS011;61575;49.908;35.556;2023-07-02T06:24:01;5.80;;;4.45;;
73337;SDS011;61575;49.908;35.556;2023-07-02T06:27:03;6.95;;;4.82;;
73337;SDS011;61575;49.908;35.556;2023-07-02T06:30:05;7.30;;;4.50;;
73337;SDS011;61575;49.908;35.556;2023-07-02T06:33:08;6.68;;;4.53;;
73337;SDS011;61575;49.908;35.556;2023-07-02T06:36:10;6.72;;;4.40;;
73337;SDS011;61575;49.908;35.556;2023-07-02T06:39:14;6.38;;;4.20;;
73337;SDS011;61575;49.908;35.556;2023-07-02T06:42:16;6.00;;;4.10;;
73337;SDS011;61575;49.908;35.556;2023-07-02T06:45:19;5.88;;;4.13;;
73337;SDS011;61575;49.908;35.556;2023-07-02T06:48:20;6.32;;;4.35;;
73337;SDS011;61575;49.908;35.556;2023-07-02T06:51:23;6.40;;;4.47;;
73337;SDS011;61575;49.908;35.556;2023-07-02T06:54:26;7.32;;;4.72;;
73337;SDS011;61575;49.908;35.556;2023-07-02T06:57:28;6.22;;;4.10;;
73337;SDS011;61575;49.908;35.556;2023-07-02T07:00:31;5.13;;;4.10;;
73337;SDS011;61575;49.908;35.556;2023-07-02T07:03:37;5.07;;;3.58;;
73337;SDS011;61575;49.908;35.556;2023-07-02T07:06:39;6.10;;;4.00;;
73337;SDS011;61575;49.908;35.556;2023-07-02T07:09:41;4.85;;;3.63;;
73337;SDS011;61575;49.908;35.556;2023-07-02T07:12:43;4.97;;;3.45;;
73337;SDS011;61575;49.908;35.556;2023-07-02T07:18:46;6.43;;;3.72;;
73337;SDS011;61575;49.908;35.556;2023-07-02T07:24:50;6.18;;;3.60;;
73337;SDS011;61575;49.908;35.556;2023-07-02T07:30:53;5.43;;;3.60;;
73337;SDS011;61575;49.908;35.556;2023-07-02T07:33:55;5.35;;;3.55;;
73337;SDS011;61575;49.908;35.556;2023-07-02T07:36:57;5.32;;;3.40;;
73337;SDS011;61575;49.908;35.556;2023-07-02T07:39:59;4.93;;;3.58;;
73337;SDS011;61575;49.908;35.556;2023-07-02T07:43:01;4.43;;;3.03;;
73337;SDS011;61575;49.908;35.556;2023-07-02T07:49:05;4.03;;;2.90;;
73337;SDS011;61575;49.908;35.556;2023-07-02T07:52:07;5.22;;;3.10;;
73337;SDS011;61575;49.908;35.556;2023-07-02T07:55:09;4.88;;;3.55;;
73337;SDS011;61575;49.908;35.556;2023-07-02T07:58:11;4.78;;;3.20;;
73337;SDS011;61575;49.908;35.556;2023-07-02T08:01:13;5.68;;;3.10;;
73337;SDS011;61575;49.908;35.556;2023-07-02T08:04:14;4.68;;;3.08;;
73337;SDS011;61575;49.908;35.556;2023-07-02T08:07:16;4.85;;;3.50;;
73337;SDS011;61575;49.908;35.556;2023-07-02T08:10:18;4.95;;;3.30;;
73337;SDS011;61575;49.908;35.556;2023-07-02T08:13:21;5.18;;;3.35;;
73337;SDS011;61575;49.908;35.556;2023-07-02T08:16:22;4.55;;;2.92;;
73337;SDS011;61575;49.908;35.556;2023-07-02T08:19:25;4.93;;;3.13;;
73337;SDS011;61575;49.908;35.556;2023-07-02T08:22:29;4.43;;;3.03;;
73337;SDS011;61575;49.908;35.556;2023-07-02T08:25:31;4.40;;;2.95;;
73337;SDS011;61575;49.908;35.556;2023-07-02T08:28:33;4.00;;;2.60;;
73337;SDS011;61575;49.908;35.556;2023-07-02T08:31:35;4.50;;;2.80;;
73337;SDS011;61575;49.908;35.556;2023-07-02T08:34:37;4.65;;;2.70;;
73337;SDS011;61575;49.908;35.556;2023-07-02T08:37:39;3.75;;;2.53;;
73337;SDS011;61575;49.908;35.556;2023-07-02T08:40:43;3.67;;;2.30;;
73337;SDS011;61575;49.908;35.556;2023-07-02T08:43:45;3.65;;;2.30;;
73337;SDS011;61575;49.908;35.556;2023-07-02T08:46:50;4.05;;;2.55;;
73337;SDS011;61575;49.908;35.556;2023-07-02T08:49:57;4.70;;;2.60;;
73337;SDS011;61575;49.908;35.556;2023-07-02T08:52:59;5.18;;;2.78;;
73337;SDS011;61575;49.908;35.556;2023-07-02T08:56:02;4.07;;;2.38;;
73337;SDS011;61575;49.908;35.556;2023-07-02T08:59:08;4.10;;;2.55;;
73337;SDS011;61575;49.908;35.556;2023-07-02T09:02:10;4.80;;;2.50;;
73337;SDS011;61575;49.908;35.556;2023-07-02T09:05:12;4.50;;;2.50;;
73337;SDS011;61575;49.908;35.556;2023-07-02T09:08:22;3.83;;;2.40;;
73337;SDS011;61575;49.908;35.556;2023-07-02T09:11:27;3.88;;;2.38;;
73337;SDS011;61575;49.908;35.556;2023-07-02T09:14:29;4.18;;;2.58;;
73337;SDS011;61575;49.908;35.556;2023-07-02T09:17:33;3.70;;;2.45;;
73337;SDS011;61575;49.908;35.556;2023-07-02T09:20:35;3.92;;;2.80;;
73337;SDS011;61575;49.908;35.556;2023-07-02T09:23:37;3.85;;;2.35;;
73337;SDS011;61575;49.908;35.556;2023-07-02T09:26:43;3.92;;;2.50;;
73337;SDS011;61575;49.908;35.556;2023-07-02T09:29:52;4.03;;;2.50;;
73337;SDS011;61575;49.908;35.556;2023-07-02T09:32:54;4.25;;;2.55;;
73337;SDS011;61575;49.908;35.556;2023-07-02T09:35:56;3.90;;;2.40;;
73337;SDS011;61575;49.908;35.556;2023-07-02T09:38:58;4.15;;;2.42;;
73337;SDS011;61575;49.908;35.556;2023-07-02T09:42:00;3.80;;;2.10;;
73337;SDS011;61575;49.908;35.556;2023-07-02T09:45:09;4.78;;;2.47;;
73337;SDS011;61575;49.908;35.556;2023-07-02T09:48:13;3.92;;;2.55;;
73337;SDS011;61575;49.908;35.556;2023-07-02T09:51:17;4.13;;;2.50;;
73337;SDS011;61575;49.908;35.556;2023-07-02T09:54:18;4.20;;;2.92;;
73337;SDS011;61575;49.908;35.556;2023-07-02T09:57:22;5.93;;;2.22;;
73337;SDS011;61575;49.908;35.556;2023-07-02T10:00:24;4.32;;;2.58;;
73337;SDS011;61575;49.908;35.556;2023-07-02T10:03:29;4.05;;;2.63;;
73337;SDS011;61575;49.908;35.556;2023-07-02T10:06:32;5.18;;;2.95;;
73337;SDS011;61575;49.908;35.556;2023-07-02T10:09:46;4.70;;;2.60;;
73337;SDS011;61575;49.908;35.556;2023-07-02T10:12:48;5.38;;;2.72;;
73337;SDS011;61575;49.908;35.556;2023-07-02T10:16:00;3.97;;;2.45;;
73337;SDS011;61575;49.908;35.556;2023-07-02T10:19:09;4.45;;;2.72;;
73337;SDS011;61575;49.908;35.556;2023-07-02T10:22:11;4.43;;;2.70;;
73337;SDS011;61575;49.908;35.556;2023-07-02T10:25:34;4.43;;;2.70;;
73337;SDS011;61575;49.908;35.556;2023-07-02T10:28:38;3.85;;;2.60;;
73337;SDS011;61575;49.908;35.556;2023-07-02T10:31:47;3.83;;;2.50;;
73337;SDS011;61575;49.908;35.556;2023-07-02T10:34:53;4.30;;;2.60;;
73337;SDS011;61575;49.908;35.556;2023-07-02T10:37:55;4.05;;;2.58;;
73337;SDS011;61575;49.908;35.556;2023-07-02T10:40:57;4.85;;;2.47;;
73337;SDS011;61575;49.908;35.556;2023-07-02T10:44:07;4.50;;;2.90;;
73337;SDS011;61575;49.908;35.556;2023-07-02T10:47:12;4.93;;;2.75;;
73337;SDS011;61575;49.908;35.556;2023-07-02T10:53:20;4.43;;;2.90;;
73337;SDS011;61575;49.908;35.556;2023-07-02T10:56:22;3.83;;;2.55;;
73337;SDS011;61575;49.908;35.556;2023-07-02T10:59:24;4.25;;;3.00;;
73337;SDS011;61575;49.908;35.556;2023-07-02T11:02:33;3.90;;;2.70;;
73337;SDS011;61575;49.908;35.556;2023-07-02T11:05:41;4.57;;;2.50;;
73337;SDS011;61575;49.908;35.556;2023-07-02T11:08:43;4.50;;;2.67;;
73337;SDS011;61575;49.908;35.556;2023-07-02T11:11:51;4.20;;;2.83;;
73337;SDS011;61575;49.908;35.556;2023-07-02T11:14:59;3.90;;;2.70;;
73337;SDS011;61575;49.908;35.556;2023-07-02T11:18:09;3.85;;;2.78;;
73337;SDS011;61575;49.908;35.556;2023-07-02T11:21:15;3.65;;;2.28;;
73337;SDS011;61575;49.908;35.556;2023-07-02T11:24:25;3.90;;;2.50;;
73337;SDS011;61575;49.908;35.556;2023-07-02T11:27:37;3.80;;;2.67;;
73337;SDS011;61575;49.908;35.556;2023-07-02T11:30:45;4.72;;;2.80;;
73337;SDS011;61575;49.908;35.556;2023-07-02T11:33:47;5.00;;;2.72;;
73337;SDS011;61575;49.908;35.556;2023-07-02T11:36:50;5.22;;;2.90;;
73337;SDS011;61575;49.908;35.556;2023-07-02T11:39:52;4.43;;;3.03;;
73337;SDS011;61575;49.908;35.556;2023-07-02T11:42:54;4.40;;;2.60;;
73337;SDS011;61575;49.908;35.556;2023-07-02T11:45:55;4.10;;;2.70;;
73337;SDS011;61575;49.908;35.556;2023-07-02T11:48:57;4.43;;;2.90;;
73337;SDS011;61575;49.908;35.556;2023-07-02T11:52:01;3.50;;;2.33;;
73337;SDS011;61575;49.908;35.556;2023-07-02T11:55:03;4.70;;;2.42;;
73337;SDS011;61575;49.908;35.556;2023-07-02T11:58:05;4.22;;;2.63;;
73337;SDS011;61575;49.908;35.556;2023-07-02T12:01:07;3.65;;;2.58;;
73337;SDS011;61575;49.908;35.556;2023-07-02T12:04:10;3.78;;;2.55;;
73337;SDS011;61575;49.908;35.556;2023-07-02T12:07:13;4.15;;;2.53;;
73337;SDS011;61575;49.908;35.556;2023-07-02T12:10:15;4.80;;;3.05;;
73337;SDS011;61575;49.908;35.556;2023-07-02T12:13:17;3.75;;;2.58;;
73337;SDS011;61575;49.908;35.556;2023-07-02T12:16:19;3.83;;;2.58;;
73337;SDS011;61575;49.908;35.556;2023-07-02T12:19:21;3.90;;;2.55;;
73337;SDS011;61575;49.908;35.556;2023-07-02T12:22:23;4.50;;;2.70;;
73337;SDS011;61575;49.908;35.556;2023-07-02T12:25:25;4.70;;;2.75;;
73337;SDS011;61575;49.908;35.556;2023-07-02T12:28:27;3.97;;;2.65;;
73337;SDS011;61575;49.908;35.556;2023-07-02T12:31:28;4.55;;;2.80;;
73337;SDS011;61575;49.908;35.556;2023-07-02T12:34:31;3.90;;;2.60;;
73337;SDS011;61575;49.908;35.556;2023-07-02T12:37:33;4.10;;;2.67;;
73337;SDS011;61575;49.908;35.556;2023-07-02T12:40:35;4.68;;;3.05;;
73337;SDS011;61575;49.908;35.556;2023-07-02T12:43:37;4.88;;;2.92;;
73337;SDS011;61575;49.908;35.556;2023-07-02T12:46:39;3.97;;;2.60;;
73337;SDS011;61575;49.908;35.556;2023-07-02T12:49:41;4.40;;;2.75;;
73337;SDS011;61575;49.908;35.556;2023-07-02T12:52:43;4.13;;;2.95;;
73337;SDS011;61575;49.908;35.556;2023-07-02T12:55:45;4.05;;;2.70;;
73337;SDS011;61575;49.908;35.556;2023-07-02T12:58:47;4.00;;;2.55;;
73337;SDS011;61575;49.908;35.556;2023-07-02T13:01:49;4.15;;;2.70;;
73337;SDS011;61575;49.908;35.556;2023-07-02T13:04:51;3.70;;;2.60;;
73337;SDS011;61575;49.908;35.556;2023-07-02T13:07:53;4.60;;;2.90;;
73337;SDS011;61575;49.908;35.556;2023-07-02T13:10:55;4.50;;;3.00;;
73337;SDS011;61575;49.908;35.556;2023-07-02T13:13:56;4.05;;;2.58;;
73337;SDS011;61575;49.908;35.556;2023-07-02T13:16:58;3.80;;;2.40;;
73337;SDS011;61575;49.908;35.556;2023-07-02T13:20:06;4.22;;;2.80;;
73337;SDS011;61575;49.908;35.556;2023-07-02T13:23:08;4.30;;;2.78;;
73337;SDS011;61575;49.908;35.556;2023-07-02T13:26:10;4.85;;;3.00;;
73337;SDS011;61575;49.908;35.556;2023-07-02T13:29:13;4.38;;;2.90;;
73337;SDS011;61575;49.908;35.556;2023-07-02T13:32:15;5.03;;;3.08;;
73337;SDS011;61575;49.908;35.556;2023-07-02T13:35:17;4.22;;;2.65;;
73337;SDS011;61575;49.908;35.556;2023-07-02T13:38:19;5.90;;;3.45;;
73337;SDS011;61575;49.908;35.556;2023-07-02T13:41:21;5.05;;;2.50;;
73337;SDS011;61575;49.908;35.556;2023-07-02T13:44:23;4.00;;;2.58;;
73337;SDS011;61575;49.908;35.556;2023-07-02T13:47:25;4.00;;;2.50;;
73337;SDS011;61575;49.908;35.556;2023-07-02T13:50:27;4.40;;;2.50;;
73337;SDS011;61575;49.908;35.556;2023-07-02T13:53:29;3.97;;;2.42;;
73337;SDS011;61575;49.908;35.556;2023-07-02T13:56:31;4.05;;;2.38;;
73337;SDS011;61575;49.908;35.556;2023-07-02T13:59:33;3.80;;;2.30;;
73337;SDS011;61575;49.908;35.556;2023-07-02T14:02:35;3.95;;;2.50;;
73337;SDS011;61575;49.908;35.556;2023-07-02T14:05:37;4.10;;;2.70;;
73337;SDS011;61575;49.908;35.556;2023-07-02T14:08:39;3.70;;;2.35;;
73337;SDS011;61575;49.908;35.556;2023-07-02T14:11:41;3.67;;;2.38;;
73337;SDS011;61575;49.908;35.556;2023-07-02T14:14:44;4.70;;;2.50;;
73337;SDS011;61575;49.908;35.556;2023-07-02T14:17:48;4.07;;;2.47;;
73337;SDS011;61575;49.908;35.556;2023-07-02T14:20:50;3.88;;;2.30;;
73337;SDS011;61575;49.908;35.556;2023-07-02T14:23:52;4.30;;;2.42;;
73337;SDS011;61575;49.908;35.556;2023-07-02T14:26:54;4.00;;;2.47;;
73337;SDS011;61575;49.908;35.556;2023-07-02T14:29:56;5.03;;;2.58;;
73337;SDS011;61575;49.908;35.556;2023-07-02T14:32:59;4.00;;;2.67;;
73337;SDS011;61575;49.908;35.556;2023-07-02T14:36:01;4.40;;;2.53;;
73337;SDS011;61575;49.908;35.556;2023-07-02T14:39:04;4.70;;;2.90;;
73337;SDS011;61575;49.908;35.556;2023-07-02T14:42:06;5.28;;;2.80;;
73337;SDS011;61575;49.908;35.556;2023-07-02T14:45:08;4.55;;;2.83;;
73337;SDS011;61575;49.908;35.556;2023-07-02T14:48:10;5.47;;;3.20;;
73337;SDS011;61575;49.908;35.556;2023-07-02T14:51:12;5.80;;;2.35;;
73337;SDS011;61575;49.908;35.556;2023-07-02T14:54:14;3.97;;;2.80;;
73337;SDS011;61575;49.908;35.556;2023-07-02T14:57:16;5.15;;;3.40;;
73337;SDS011;61575;49.908;35.556;2023-07-02T15:00:20;3.88;;;2.65;;
73337;SDS011;61575;49.908;35.556;2023-07-02T15:03:23;4.40;;;3.08;;
73337;SDS011;61575;49.908;35.556;2023-07-02T15:06:26;4.15;;;2.65;;
73337;SDS011;61575;49.908;35.556;2023-07-02T15:09:30;5.30;;;3.15;;
73337;SDS011;61575;49.908;35.556;2023-07-02T15:12:32;4.75;;;3.08;;
73337;SDS011;61575;49.908;35.556;2023-07-02T15:15:35;4.30;;;2.88;;
73337;SDS011;61575;49.908;35.556;2023-07-02T15:18:38;5.50;;;3.22;;
73337;SDS011;61575;49.908;35.556;2023-07-02T15:21:40;5.22;;;3.03;;
73337;SDS011;61575;49.908;35.556;2023-07-02T15:24:41;4.82;;;3.03;;
73337;SDS011;61575;49.908;35.556;2023-07-02T15:27:43;4.75;;;3.10;;
73337;SDS011;61575;49.908;35.556;2023-07-02T15:30:46;5.20;;;3.40;;
73337;SDS011;61575;49.908;35.556;2023-07-02T15:33:54;4.53;;;2.95;;
73337;SDS011;61575;49.908;35.556;2023-07-02T15:36:56;4.40;;;2.78;;
73337;SDS011;61575;49.908;35.556;2023-07-02T15:39:58;5.10;;;3.08;;
73337;SDS011;61575;49.908;35.556;2023-07-02T15:43:00;4.47;;;2.92;;
73337;SDS011;61575;49.908;35.556;2023-07-02T15:46:02;4.70;;;3.10;;
73337;SDS011;61575;49.908;35.556;2023-07-02T15:49:05;4.07;;;2.90;;
73337;SDS011;61575;49.908;35.556;2023-07-02T15:52:08;5.35;;;3.20;;
73337;SDS011;61575;49.908;35.556;2023-07-02T15:55:10;4.72;;;2.90;;
73337;SDS011;61575;49.908;35.556;2023-07-02T15:58:12;4.18;;;2.47;;
73337;SDS011;61575;49.908;35.556;2023-07-02T16:01:15;4.82;;;2.90;;
73337;SDS011;61575;49.908;35.556;2023-07-02T16:04:19;4.18;;;2.60;;
73337;SDS011;61575;49.908;35.556;2023-07-02T16:07:22;4.40;;;2.90;;
73337;SDS011;61575;49.908;35.556;2023-07-02T16:10:24;4.97;;;3.00;;
73337;SDS011;61575;49.908;35.556;2023-07-02T16:13:26;4.88;;;3.15;;
73337;SDS011;61575;49.908;35.556;2023-07-02T16:16:31;5.10;;;3.17;;
73337;SDS011;61575;49.908;35.556;2023-07-02T16:19:35;4.22;;;2.85;;
73337;SDS011;61575;49.908;35.556;2023-07-02T16:22:36;4.93;;;2.90;;
73337;SDS011;61575;49.908;35.556;2023-07-02T16:25:38;4.13;;;2.72;;
73337;SDS011;61575;49.908;35.556;2023-07-02T16:28:40;4.43;;;2.63;;
73337;SDS011;61575;49.908;35.556;2023-07-02T16:31:51;3.70;;;2.55;;
73337;SDS011;61575;49.908;35.556;2023-07-02T16:34:55;4.10;;;2.70;;
73337;SDS011;61575;49.908;35.556;2023-07-02T16:37:57;4.80;;;2.72;;
73337;SDS011;61575;49.908;35.556;2023-07-02T16:40:59;4.88;;;3.05;;
73337;SDS011;61575;49.908;35.556;2023-07-02T16:44:01;4.25;;;2.80;;
73337;SDS011;61575;49.908;35.556;2023-07-02T16:47:03;4.35;;;2.80;;
73337;SDS011;61575;49.908;35.556;2023-07-02T16:50:06;4.57;;;3.00;;
73337;SDS011;61575;49.908;35.556;2023-07-02T16:53:08;4.00;;;2.60;;
73337;SDS011;61575;49.908;35.556;2023-07-02T16:56:10;5.18;;;3.22;;
73337;SDS011;61575;49.908;35.556;2023-07-02T16:59:14;4.20;;;2.90;;
73337;SDS011;61575;49.908;35.556;2023-07-02T17:02:18;4.30;;;2.70;;
73337;SDS011;61575;49.908;35.556;2023-07-02T17:05:20;4.90;;;3.13;;
73337;SDS011;61575;49.908;35.556;2023-07-02T17:08:22;5.35;;;3.33;;
73337;SDS011;61575;49.908;35.556;2023-07-02T17:11:24;5.15;;;3.50;;
73337;SDS011;61575;49.908;35.556;2023-07-02T17:17:31;6.18;;;3.83;;
73337;SDS011;61575;49.908;35.556;2023-07-02T17:20:33;6.90;;;3.63;;
73337;SDS011;61575;49.908;35.556;2023-07-02T17:23:36;4.57;;;3.60;;
73337;SDS011;61575;49.908;35.556;2023-07-02T17:29:41;5.78;;;3.67;;
73337;SDS011;61575;49.908;35.556;2023-07-02T17:32:44;5.60;;;3.72;;
73337;SDS011;61575;49.908;35.556;2023-07-02T17:35:46;5.70;;;3.20;;
73337;SDS011;61575;49.908;35.556;2023-07-02T17:38:48;4.95;;;2.95;;
73337;SDS011;61575;49.908;35.556;2023-07-02T17:44:53;4.88;;;3.45;;
73337;SDS011;61575;49.908;35.556;2023-07-02T17:47:59;5.13;;;3.83;;
73337;SDS011;61575;49.908;35.556;2023-07-02T17:51:01;4.95;;;3.20;;
73337;SDS011;61575;49.908;35.556;2023-07-02T17:54:03;5.20;;;3.50;;
73337;SDS011;61575;49.908;35.556;2023-07-02T17:57:09;4.65;;;2.92;;
73337;SDS011;61575;49.908;35.556;2023-07-02T18:00:12;5.35;;;3.55;;
73337;SDS011;61575;49.908;35.556;2023-07-02T18:03:14;4.80;;;3.20;;
73337;SDS011;61575;49.908;35.556;2023-07-02T18:06:16;4.50;;;3.10;;
73337;SDS011;61575;49.908;35.556;2023-07-02T18:09:19;5.72;;;3.17;;
73337;SDS011;61575;49.908;35.556;2023-07-02T18:15:27;4.55;;;3.00;;
73337;SDS011;61575;49.908;35.556;2023-07-02T18:21:31;4.35;;;3.20;;
73337;SDS011;61575;49.908;35.556;2023-07-02T18:24:34;6.60;;;3.03;;
73337;SDS011;61575;49.908;35.556;2023-07-02T18:27:38;5.97;;;3.10;;
73337;SDS011;61575;49.908;35.556;2023-07-02T18:33:46;6.18;;;3.20;;
73337;SDS011;61575;49.908;35.556;2023-07-02T18:36:48;4.75;;;3.20;;
73337;SDS011;61575;49.908;35.556;2023-07-02T18:39:50;5.32;;;3.30;;
73337;SDS011;61575;49.908;35.556;2023-07-02T18:42:52;5.47;;;3.78;;
73337;SDS011;61575;49.908;35.556;2023-07-02T18:48:56;4.93;;;3.13;;
73337;SDS011;61575;49.908;35.556;2023-07-02T18:51:58;5.30;;;3.33;;
73337;SDS011;61575;49.908;35.556;2023-07-02T18:55:00;5.25;;;3.33;;
73337;SDS011;61575;49.908;35.556;2023-07-02T19:01:07;6.20;;;3.25;;
73337;SDS011;61575;49.908;35.556;2023-07-02T19:04:11;5.00;;;3.00;;
73337;SDS011;61575;49.908;35.556;2023-07-02T19:10:15;5.18;;;3.35;;
73337;SDS011;61575;49.908;35.556;2023-07-02T19:13:17;4.28;;;2.72;;